createdAt,value
2017-08-31T00:01:13.124Z,94.20
2017-08-31T00:03:42.374Z,94.00
2017-08-31T00:06:11.753Z,93.70
2017-08-31T00:08:41.292Z,93.20
2017-08-31T00:11:11.421Z,92.80
2017-08-31T00:13:40.923Z,92.80
2017-08-31T00:16:10.178Z,92.80
2017-08-31T00:18:39.627Z,92.90
2017-08-31T00:21:09.674Z,94.20
2017-08-31T00:23:39.757Z,94.20
2017-08-31T00:26:09.760Z,93.70
2017-08-31T00:28:38.999Z,93.70
2017-08-31T00:31:08.261Z,93.50
2017-08-31T00:33:37.617Z,93.50
2017-08-31T00:36:06.893Z,93.20
2017-08-31T00:38:36.148Z,93.00
2017-08-31T00:41:06.238Z,93.00
2017-08-31T00:43:35.729Z,93.60
2017-08-31T00:46:05.058Z,94.00
2017-08-31T00:48:34.562Z,94.00
2017-08-31T00:51:04.720Z,94.10
2017-08-31T00:53:34.585Z,93.50
2017-08-31T00:56:04.683Z,93.60
2017-08-31T00:58:36.196Z,94.10
2017-08-31T01:01:06.668Z,94.30
2017-08-31T01:03:35.969Z,94.20
2017-08-31T01:06:05.276Z,94.30
2017-08-31T01:08:34.578Z,93.80
2017-08-31T01:11:04.012Z,93.70
2017-08-31T01:13:34.043Z,93.60
2017-08-31T01:16:03.272Z,93.60
2017-08-31T01:18:33.066Z,93.50
2017-08-31T01:21:02.791Z,93.20
2017-08-31T01:23:32.109Z,93.20
2017-08-31T01:26:01.599Z,93.20
2017-08-31T01:28:30.883Z,93.30
2017-08-31T01:31:00.267Z,93.50
2017-08-31T01:33:29.603Z,94.10
2017-08-31T01:35:59.448Z,94.40
2017-08-31T01:38:28.821Z,94.20
2017-08-31T01:40:58.163Z,94.30
2017-08-31T01:43:28.243Z,94.10
2017-08-31T01:45:57.945Z,94.10
2017-08-31T01:48:27.349Z,93.80
2017-08-31T01:50:56.692Z,94.30
2017-08-31T01:53:26.793Z,93.90
2017-08-31T01:55:56.798Z,94.00
2017-08-31T01:58:26.021Z,94.00
2017-08-31T02:00:56.170Z,94.10
2017-08-31T02:03:25.430Z,94.10
2017-08-31T02:05:55.448Z,94.50
2017-08-31T02:10:50.003Z,94.70
2017-08-31T02:13:19.515Z,94.80
2017-08-31T02:15:49.131Z,94.20
2017-08-31T02:18:18.363Z,94.40
2017-08-31T02:20:47.649Z,93.80
2017-08-31T02:23:16.950Z,93.50
2017-08-31T02:25:47.555Z,93.70
2017-08-31T02:28:16.811Z,93.70
2017-08-31T02:30:46.391Z,93.70
2017-08-31T02:33:15.750Z,93.80
2017-08-31T02:35:45.095Z,94.00
2017-08-31T02:38:14.651Z,94.20
2017-08-31T02:40:43.952Z,93.90
2017-08-31T02:43:14.253Z,94.00
2017-08-31T02:45:43.505Z,94.00
2017-08-31T02:48:12.724Z,93.70
2017-08-31T02:50:42.001Z,94.00
2017-08-31T02:53:11.254Z,94.30
2017-08-31T02:55:40.458Z,94.00
2017-08-31T02:58:09.708Z,94.30
2017-08-31T03:00:39.012Z,94.30
2017-08-31T03:03:08.231Z,94.40
2017-08-31T03:05:37.471Z,94.20
2017-08-31T03:08:06.718Z,94.40
2017-08-31T03:10:36.001Z,94.40
2017-08-31T03:13:05.527Z,94.70
2017-08-31T03:15:34.740Z,94.40
2017-08-31T03:18:04.079Z,94.10
2017-08-31T03:20:33.728Z,93.80
2017-08-31T03:23:03.687Z,93.70
2017-08-31T03:25:32.884Z,93.80
2017-08-31T03:28:02.123Z,93.70
2017-08-31T03:30:31.720Z,93.80
2017-08-31T03:33:01.704Z,94.50
2017-08-31T03:35:30.920Z,94.50
2017-08-31T03:38:00.746Z,94.80
2017-08-31T03:40:29.979Z,94.70
2017-08-31T03:42:59.399Z,93.90
2017-08-31T03:45:28.763Z,93.30
2017-08-31T03:47:58.007Z,93.70
2017-08-31T03:50:27.219Z,93.30
2017-08-31T03:52:56.451Z,93.70
2017-08-31T03:55:25.694Z,93.80
2017-08-31T03:57:56.041Z,94.10
2017-08-31T04:00:25.462Z,94.30
2017-08-31T04:02:54.643Z,93.90
2017-08-31T04:05:24.742Z,93.50
2017-08-31T04:07:54.023Z,93.80
2017-08-31T04:10:23.642Z,93.20
2017-08-31T04:12:52.914Z,93.40
2017-08-31T04:15:22.250Z,93.40
2017-08-31T04:17:51.538Z,93.70
2017-08-31T04:20:20.800Z,93.70
2017-08-31T04:22:50.022Z,93.50
2017-08-31T04:25:19.751Z,93.70
2017-08-31T04:27:49.076Z,93.50
2017-08-31T04:30:19.163Z,93.50
2017-08-31T04:32:48.484Z,93.50
2017-08-31T04:35:17.767Z,93.70
2017-08-31T04:37:47.035Z,93.60
2017-08-31T04:40:16.839Z,93.90
2017-08-31T04:42:46.169Z,94.00
2017-08-31T04:45:15.395Z,94.30
2017-08-31T04:47:45.377Z,94.00
2017-08-31T04:50:14.711Z,94.00
2017-08-31T04:52:44.862Z,95.00
2017-08-31T04:55:14.309Z,95.20
2017-08-31T04:57:43.779Z,94.40
2017-08-31T05:00:13.066Z,94.30
2017-08-31T05:02:42.498Z,94.20
2017-08-31T05:05:11.870Z,93.70
2017-08-31T05:07:41.201Z,93.50
2017-08-31T05:10:10.578Z,93.40
2017-08-31T05:12:39.952Z,93.10
2017-08-31T05:15:09.502Z,93.00
2017-08-31T05:17:39.287Z,93.40
2017-08-31T05:20:09.875Z,93.60
2017-08-31T05:22:40.578Z,93.60
2017-08-31T05:25:11.067Z,93.90
2017-08-31T05:27:42.595Z,93.50
2017-08-31T05:30:13.443Z,93.50
2017-08-31T05:32:43.045Z,93.40
2017-08-31T05:35:12.464Z,93.20
2017-08-31T05:37:41.917Z,92.70
2017-08-31T05:40:11.359Z,93.20
2017-08-31T05:42:40.924Z,93.70
2017-08-31T05:45:10.311Z,93.70
2017-08-31T05:47:39.689Z,93.70
2017-08-31T06:01:33.726Z,93.50
2017-08-31T06:04:03.067Z,93.50
2017-08-31T06:06:32.411Z,93.20
2017-08-31T06:09:01.753Z,93.40
2017-08-31T06:11:31.185Z,93.40
2017-08-31T06:14:00.551Z,92.70
2017-08-31T06:16:29.852Z,93.10
2017-08-31T06:20:22.555Z,93.30
2017-08-31T06:22:53.109Z,93.70
2017-08-31T06:25:22.470Z,93.70
2017-08-31T06:27:52.542Z,93.00
2017-08-31T06:30:22.242Z,93.10
2017-08-31T06:32:52.562Z,93.10
2017-08-31T06:35:21.882Z,93.00
2017-08-31T06:37:51.242Z,92.70
2017-08-31T06:40:20.640Z,92.60
2017-08-31T06:42:50.130Z,93.00
2017-08-31T06:45:19.442Z,92.80
2017-08-31T06:47:48.771Z,92.80
2017-08-31T06:50:18.056Z,92.80
2017-08-31T06:52:47.583Z,93.00
2017-08-31T06:55:16.901Z,93.00
2017-08-31T06:57:46.192Z,93.20
2017-08-31T07:00:16.347Z,92.50
2017-08-31T07:02:46.359Z,92.50
2017-08-31T07:05:16.395Z,92.20
2017-08-31T07:07:45.854Z,92.20
2017-08-31T07:10:15.190Z,92.30
2017-08-31T07:12:44.544Z,92.20
2017-08-31T07:15:13.835Z,92.20
2017-08-31T07:17:43.126Z,92.30
2017-08-31T07:20:12.430Z,92.40
2017-08-31T07:22:41.786Z,92.40
2017-08-31T07:25:11.906Z,92.10
2017-08-31T07:27:41.328Z,92.10
2017-08-31T07:30:11.085Z,91.70
2017-08-31T07:32:40.605Z,92.20
2017-08-31T07:35:10.714Z,91.70
2017-08-31T07:37:40.134Z,91.70
2017-08-31T07:40:09.400Z,92.00
2017-08-31T07:42:38.653Z,92.10
2017-08-31T07:45:07.955Z,92.20
2017-08-31T07:47:37.206Z,92.00
2017-08-31T07:50:06.517Z,92.30
2017-08-31T07:52:35.815Z,92.30
2017-08-31T07:55:05.124Z,92.10
2017-08-31T07:57:34.699Z,91.20
2017-08-31T08:00:04.082Z,91.80
2017-08-31T08:02:33.452Z,91.40
2017-08-31T08:05:02.671Z,91.80
2017-08-31T08:07:31.962Z,91.50
2017-08-31T08:10:01.474Z,91.70
2017-08-31T08:12:30.798Z,91.20
2017-08-31T08:15:00.496Z,90.90
2017-08-31T08:17:29.786Z,91.10
2017-08-31T08:19:59.108Z,91.00
2017-08-31T08:22:29.302Z,91.00
2017-08-31T08:24:58.603Z,90.90
2017-08-31T08:27:27.989Z,91.00
2017-08-31T08:29:57.382Z,91.30
2017-08-31T08:32:27.834Z,91.00
2017-08-31T08:34:57.049Z,90.80
2017-08-31T08:37:26.453Z,91.10
2017-08-31T08:39:55.817Z,90.70
2017-08-31T08:42:25.337Z,90.20
2017-08-31T08:44:54.670Z,90.30
2017-08-31T08:47:23.949Z,90.40
2017-08-31T08:49:53.315Z,90.40
2017-08-31T08:52:22.706Z,90.20
2017-08-31T08:54:52.735Z,90.30
2017-08-31T08:57:22.074Z,90.10
2017-08-31T08:59:51.535Z,89.90
2017-08-31T09:02:20.882Z,87.90
2017-08-31T09:04:50.979Z,90.10
2017-08-31T09:07:20.961Z,90.20
2017-08-31T09:09:50.198Z,90.00
2017-08-31T09:12:19.649Z,90.00
2017-08-31T09:14:49.721Z,90.10
2017-08-31T09:17:19.434Z,90.10
2017-08-31T09:19:49.213Z,89.70
2017-08-31T09:22:18.689Z,89.60
2017-08-31T09:24:48.030Z,89.80
2017-08-31T09:27:17.322Z,90.00
2017-08-31T09:29:46.623Z,89.90
2017-08-31T09:32:15.907Z,90.00
2017-08-31T09:34:45.255Z,89.70
2017-08-31T09:37:15.040Z,86.60
2017-08-31T09:39:45.242Z,86.60
2017-08-31T09:42:14.540Z,87.00
2017-08-31T09:44:43.875Z,86.10
2017-08-31T09:47:13.330Z,85.50
2017-08-31T09:49:42.795Z,85.00
2017-08-31T09:52:12.403Z,85.70
2017-08-31T09:54:43.647Z,87.00
2017-08-31T09:57:13.270Z,85.90
2017-08-31T09:59:43.008Z,85.00
2017-08-31T10:02:12.303Z,86.10
2017-08-31T10:04:41.610Z,85.50
2017-08-31T10:07:10.894Z,87.10
2017-08-31T10:09:40.190Z,87.30
2017-08-31T10:12:09.796Z,85.60
2017-08-31T10:14:39.112Z,84.30
2017-08-31T10:17:08.483Z,84.70
2017-08-31T10:19:37.851Z,83.70
2017-08-31T10:22:07.240Z,82.70
2017-08-31T10:24:36.773Z,83.20
2017-08-31T10:27:06.915Z,83.70
2017-08-31T10:29:36.225Z,83.70
2017-08-31T10:32:05.747Z,82.80
2017-08-31T10:34:35.113Z,82.60
2017-08-31T10:37:04.505Z,83.10
2017-08-31T10:39:33.884Z,85.70
2017-08-31T10:42:03.291Z,87.40
2017-08-31T10:44:32.725Z,85.80
2017-08-31T10:47:02.135Z,87.20
2017-08-31T10:49:31.711Z,86.30
2017-08-31T10:52:01.915Z,86.50
2017-08-31T10:54:31.312Z,86.50
2017-08-31T10:57:00.692Z,85.20
2017-08-31T10:59:29.991Z,84.70
2017-08-31T11:02:00.393Z,86.50
2017-08-31T11:04:29.850Z,86.00
2017-08-31T11:07:00.098Z,84.70
2017-08-31T11:09:29.491Z,84.60
2017-08-31T11:11:59.958Z,79.10
2017-08-31T11:14:29.296Z,79.00
2017-08-31T11:16:58.730Z,79.50
2017-08-31T11:19:28.159Z,80.40
2017-08-31T11:21:57.632Z,80.20
2017-08-31T11:24:27.196Z,80.00
2017-08-31T11:26:56.677Z,78.90
2017-08-31T11:29:26.122Z,78.50
2017-08-31T11:31:55.572Z,81.10
2017-08-31T11:34:25.193Z,81.10
2017-08-31T11:36:54.584Z,81.50
2017-08-31T11:39:23.912Z,82.40
2017-08-31T11:41:53.307Z,80.80
2017-08-31T11:44:22.687Z,81.00
2017-08-31T11:46:52.170Z,80.70
2017-08-31T11:49:21.494Z,81.10
2017-08-31T11:51:50.722Z,80.00
2017-08-31T11:54:20.380Z,80.40
2017-08-31T11:56:50.355Z,81.20
2017-08-31T11:59:20.534Z,81.40
2017-08-31T12:01:50.096Z,81.50
2017-08-31T12:04:20.255Z,80.80
2017-08-31T12:06:50.256Z,80.70
2017-08-31T12:09:19.514Z,79.00
2017-08-31T12:11:52.461Z,77.00
2017-08-31T12:14:21.773Z,77.10
2017-08-31T12:16:51.186Z,77.60
2017-08-31T12:19:21.116Z,78.80
2017-08-31T12:21:51.050Z,75.30
2017-08-31T12:24:20.759Z,75.30
2017-08-31T12:26:50.017Z,74.60
2017-08-31T12:29:19.401Z,74.10
2017-08-31T12:31:48.782Z,73.70
2017-08-31T12:34:18.164Z,74.90
2017-08-31T12:36:47.807Z,71.80
2017-08-31T12:39:17.226Z,72.50
2017-08-31T12:41:46.569Z,73.60
2017-08-31T12:44:16.875Z,74.50
2017-08-31T12:46:46.407Z,73.40
2017-08-31T12:49:15.775Z,73.10
2017-08-31T12:51:45.968Z,70.30
2017-08-31T12:54:15.247Z,70.40
2017-08-31T12:56:45.382Z,71.10
2017-08-31T12:59:14.663Z,71.10
2017-08-31T13:01:43.889Z,71.40
2017-08-31T13:04:13.282Z,66.70
2017-08-31T13:06:42.948Z,66.50
2017-08-31T13:09:12.224Z,65.80
2017-08-31T13:11:42.466Z,68.30
2017-08-31T13:14:11.938Z,68.30
2017-08-31T13:16:42.013Z,66.80
2017-08-31T13:19:11.304Z,66.90
2017-08-31T13:21:40.812Z,68.40
2017-08-31T13:24:10.241Z,67.10
2017-08-31T13:26:39.655Z,67.90
2017-08-31T13:29:10.042Z,66.50
2017-08-31T13:31:39.489Z,65.80
2017-08-31T13:34:09.614Z,64.70
2017-08-31T13:36:39.763Z,62.60
2017-08-31T13:39:09.083Z,62.50
2017-08-31T13:41:38.576Z,63.70
2017-08-31T13:44:08.878Z,61.30
2017-08-31T13:46:38.161Z,62.20
2017-08-31T13:49:07.593Z,65.30
2017-08-31T13:51:37.033Z,66.30
2017-08-31T13:54:06.303Z,66.20
2017-08-31T13:59:36.187Z,67.30
2017-08-31T14:02:06.482Z,66.50
2017-08-31T14:04:35.813Z,66.60
2017-08-31T14:07:05.886Z,65.80
2017-08-31T14:09:35.248Z,65.80
2017-08-31T14:12:05.616Z,64.50
2017-08-31T14:14:35.203Z,66.90
2017-08-31T14:17:05.047Z,67.60
2017-08-31T14:19:34.544Z,67.30
2017-08-31T14:22:04.712Z,67.00
2017-08-31T14:24:34.386Z,66.10
2017-08-31T14:27:03.840Z,66.80
2017-08-31T14:29:33.414Z,66.00
2017-08-31T14:32:02.811Z,65.20
2017-08-31T14:34:32.599Z,63.90
2017-08-31T14:37:02.170Z,64.90
2017-08-31T14:39:31.670Z,65.30
2017-08-31T14:42:01.106Z,64.20
2017-08-31T14:44:30.498Z,63.80
2017-08-31T14:47:00.882Z,64.40
2017-08-31T14:49:30.236Z,64.40
2017-08-31T14:51:59.510Z,63.30
2017-08-31T14:54:28.814Z,63.30
2017-08-31T14:56:58.065Z,63.80
2017-08-31T14:59:27.346Z,62.90
2017-08-31T15:01:56.742Z,64.60
2017-08-31T15:04:26.981Z,61.30
2017-08-31T15:06:56.338Z,61.40
2017-08-31T15:09:25.643Z,61.80
2017-08-31T15:11:54.977Z,60.50
2017-08-31T15:14:25.235Z,55.90
2017-08-31T15:16:54.831Z,55.90
2017-08-31T15:19:24.288Z,55.50
2017-08-31T15:21:53.768Z,54.70
2017-08-31T15:24:23.166Z,56.30
2017-08-31T15:26:52.759Z,57.10
2017-08-31T15:29:22.242Z,55.80
2017-08-31T15:31:51.434Z,56.20
2017-08-31T15:34:21.598Z,55.90
2017-08-31T15:36:50.944Z,57.50
2017-08-31T15:39:20.135Z,56.60
2017-08-31T15:41:49.402Z,56.10
2017-08-31T15:44:19.579Z,55.20
2017-08-31T15:46:49.178Z,55.20
2017-08-31T15:49:18.490Z,55.30
2017-08-31T15:51:55.544Z,54.50
2017-08-31T15:54:24.817Z,55.20
2017-08-31T15:56:58.963Z,55.80
2017-08-31T15:59:29.035Z,55.40
2017-08-31T16:01:58.419Z,55.30
2017-08-31T16:04:37.219Z,54.60
2017-08-31T16:07:06.858Z,53.90
2017-08-31T16:09:36.696Z,53.30
2017-08-31T16:12:06.181Z,52.20
2017-08-31T16:14:40.484Z,51.40
2017-08-31T16:17:20.829Z,50.00
2017-08-31T16:19:51.776Z,52.00
2017-08-31T16:22:21.571Z,52.10
2017-08-31T16:24:50.989Z,53.70
2017-08-31T16:27:20.442Z,53.20
2017-08-31T16:29:50.070Z,53.20
2017-08-31T16:32:20.145Z,52.80
2017-08-31T16:34:52.615Z,52.00
2017-08-31T16:37:21.917Z,54.00
2017-08-31T16:39:51.255Z,54.80
2017-08-31T16:42:20.697Z,57.10
2017-08-31T16:44:50.898Z,57.60
2017-08-31T16:47:23.793Z,58.10
2017-08-31T16:49:53.104Z,56.70
2017-08-31T16:52:22.390Z,57.10
2017-08-31T16:54:51.745Z,57.10
2017-08-31T16:57:21.542Z,56.80
2017-08-31T16:59:51.141Z,56.40
2017-08-31T17:02:20.810Z,56.70
2017-08-31T17:04:50.145Z,56.80
2017-08-31T17:07:19.402Z,57.30
2017-08-31T17:09:49.283Z,57.90
2017-08-31T17:12:18.589Z,58.10
2017-08-31T17:14:48.107Z,58.70
2017-08-31T17:17:19.495Z,58.20
2017-08-31T17:19:49.278Z,59.10
2017-08-31T17:22:19.333Z,59.30
2017-08-31T17:24:49.627Z,58.50
2017-08-31T17:27:19.056Z,58.40
2017-08-31T17:29:48.485Z,60.40
2017-08-31T17:32:18.625Z,59.60
2017-08-31T17:34:48.874Z,59.90
2017-08-31T17:37:19.017Z,60.00
2017-08-31T17:39:48.831Z,60.70
2017-08-31T17:42:18.530Z,62.30
2017-08-31T17:44:47.890Z,62.30
2017-08-31T17:47:17.462Z,62.90
2017-08-31T17:49:47.293Z,62.20
2017-08-31T17:52:16.728Z,64.70
2017-08-31T17:54:46.796Z,63.40
2017-08-31T17:57:16.238Z,64.30
2017-08-31T17:59:46.464Z,63.50
2017-08-31T18:02:15.764Z,62.60
2017-08-31T18:04:45.164Z,64.00
2017-08-31T18:07:14.546Z,61.60
2017-08-31T18:09:43.992Z,64.30
2017-08-31T18:12:13.347Z,63.50
2017-08-31T18:14:42.809Z,65.70
2017-08-31T18:17:12.300Z,66.00
2017-08-31T18:19:41.824Z,65.30
2017-08-31T18:22:11.354Z,62.70
2017-08-31T18:24:41.916Z,66.00
2017-08-31T18:27:11.409Z,66.00
2017-08-31T18:29:41.086Z,65.50
2017-08-31T18:32:11.134Z,65.60
2017-08-31T18:34:40.396Z,65.60
2017-08-31T18:37:11.458Z,64.40
2017-08-31T18:39:40.795Z,63.70
2017-08-31T18:42:10.384Z,62.80
2017-08-31T18:44:39.750Z,62.60
2017-08-31T18:47:10.352Z,63.50
2017-08-31T18:49:39.651Z,63.50
2017-08-31T18:52:10.047Z,63.00
2017-08-31T18:54:40.134Z,63.70
2017-08-31T18:57:10.413Z,63.50
2017-08-31T18:59:40.259Z,63.30
2017-08-31T19:02:09.974Z,65.30
2017-08-31T19:04:39.306Z,67.10
2017-08-31T19:07:08.763Z,66.60
2017-08-31T19:09:38.899Z,68.10
2017-08-31T19:12:08.559Z,68.10
2017-08-31T19:14:37.883Z,69.60
2017-08-31T19:17:08.359Z,68.80
2017-08-31T19:19:37.885Z,68.70
2017-08-31T19:22:07.340Z,69.30
2017-08-31T19:24:36.681Z,70.60
2017-08-31T19:27:06.185Z,71.90
2017-08-31T19:29:35.511Z,72.70
2017-08-31T19:32:04.849Z,72.70
2017-08-31T19:34:35.044Z,73.10
2017-08-31T19:37:05.161Z,73.60
2017-08-31T19:39:35.353Z,75.50
2017-08-31T19:42:04.860Z,75.40
2017-08-31T19:44:34.136Z,76.70
2017-08-31T19:47:03.473Z,77.30
2017-08-31T19:49:32.803Z,78.30
2017-08-31T19:52:02.450Z,80.50
2017-08-31T19:54:31.941Z,81.60
2017-08-31T19:57:01.331Z,81.70
2017-08-31T19:59:30.753Z,82.90
2017-08-31T20:01:59.982Z,83.20
2017-08-31T20:04:29.431Z,83.80
2017-08-31T20:06:58.829Z,84.20
2017-08-31T20:09:28.692Z,84.50
2017-08-31T20:11:58.966Z,84.10
2017-08-31T20:14:28.482Z,84.10
2017-08-31T20:16:57.897Z,85.10
2017-08-31T20:19:27.105Z,86.30
2017-08-31T20:21:56.645Z,87.30
2017-08-31T20:24:25.894Z,87.80
2017-08-31T20:26:55.778Z,87.40
2017-08-31T20:29:25.131Z,87.40
2017-08-31T20:31:54.448Z,86.40
2017-08-31T20:34:23.771Z,86.10
2017-08-31T20:36:53.127Z,86.30
2017-08-31T20:39:22.351Z,87.10
2017-08-31T20:41:52.367Z,89.80
2017-08-31T20:44:22.369Z,89.80
2017-08-31T20:46:51.733Z,89.80
2017-08-31T20:49:21.012Z,89.50
2017-08-31T20:51:50.328Z,88.90
2017-08-31T20:54:19.739Z,88.30
2017-08-31T20:56:49.493Z,88.10
2017-08-31T21:00:51.476Z,90.50
2017-08-31T21:03:21.149Z,90.50
2017-08-31T21:05:50.445Z,91.20
2017-08-31T21:08:19.989Z,91.50
2017-08-31T21:10:49.500Z,91.50
2017-08-31T21:13:20.335Z,91.80
2017-08-31T21:15:49.885Z,92.10
2017-08-31T21:18:19.426Z,92.30
2017-08-31T21:20:49.625Z,92.50
2017-08-31T21:23:19.061Z,91.90
2017-08-31T21:25:48.628Z,91.40
2017-08-31T21:28:18.268Z,91.00
2017-08-31T21:30:48.446Z,90.70
2017-08-31T21:33:18.196Z,90.70
2017-08-31T21:35:48.239Z,90.80
2017-08-31T21:38:18.794Z,91.40
2017-08-31T21:40:49.877Z,91.30
2017-08-31T21:43:20.935Z,91.30
2017-08-31T21:45:50.479Z,91.00
2017-08-31T21:48:19.755Z,90.50
2017-08-31T21:50:49.124Z,90.30
2017-08-31T21:53:18.541Z,91.20
2017-08-31T21:55:48.043Z,92.10
2017-08-31T21:58:18.118Z,92.50
2017-08-31T22:00:47.345Z,92.20
2017-08-31T22:03:16.672Z,92.00
2017-08-31T22:05:45.920Z,91.70
2017-08-31T22:08:15.383Z,91.70
2017-08-31T22:10:44.590Z,91.50
2017-08-31T22:13:13.775Z,91.70
2017-08-31T22:15:43.061Z,92.00
2017-08-31T22:18:12.946Z,92.40
2017-08-31T22:20:44.809Z,91.90
2017-08-31T22:23:14.928Z,91.90
2017-08-31T22:25:48.616Z,91.60
2017-08-31T22:28:21.571Z,90.90
2017-08-31T22:30:52.848Z,90.50
2017-08-31T22:33:25.941Z,90.10
2017-08-31T22:35:58.305Z,90.10
2017-08-31T22:38:32.731Z,89.20
2017-08-31T22:41:02.826Z,88.80
2017-08-31T22:43:32.019Z,88.80
2017-08-31T22:46:01.298Z,88.80
2017-08-31T22:48:30.611Z,88.50
2017-08-31T22:50:59.845Z,88.10
2017-08-31T22:53:29.867Z,87.00
2017-08-31T22:55:59.113Z,87.00
2017-08-31T22:58:37.435Z,86.70
2017-08-31T23:01:06.750Z,87.40
2017-08-31T23:03:36.706Z,87.50
2017-08-31T23:06:05.956Z,87.50
2017-08-31T23:08:35.326Z,87.40
2017-08-31T23:11:04.725Z,88.00
2017-08-31T23:13:34.026Z,87.70
2017-08-31T23:16:03.482Z,88.00
2017-08-31T23:18:33.039Z,88.00
2017-08-31T23:21:02.265Z,88.00
2017-08-31T23:23:31.566Z,88.20
2017-08-31T23:26:01.566Z,88.60
2017-08-31T23:28:31.591Z,88.70
2017-08-31T23:31:00.900Z,88.70
2017-08-31T23:33:30.145Z,89.10
2017-08-31T23:35:59.456Z,88.80
2017-08-31T23:38:28.842Z,88.60
2017-08-31T23:40:58.302Z,88.60
2017-08-31T23:43:27.497Z,88.50
2017-08-31T23:45:56.810Z,89.10
2017-08-31T23:48:26.008Z,89.20
2017-08-31T23:50:55.384Z,89.30
2017-08-31T23:53:24.932Z,89.30
2017-08-31T23:55:54.182Z,89.70
2017-08-31T23:58:23.752Z,90.30
